createdAt,value
2018-05-09T00:00:11.447Z,15.80
2018-05-09T00:02:03.211Z,15.88
2018-05-09T00:03:03.150Z,16.01
2018-05-09T00:04:54.911Z,16.03
2018-05-09T00:05:54.846Z,15.91
2018-05-09T00:07:46.597Z,16.03
2018-05-09T00:08:46.541Z,15.99
2018-05-09T00:10:38.293Z,15.92
2018-05-09T00:11:38.266Z,15.99
2018-05-09T00:13:30.024Z,15.99
2018-05-09T00:14:29.934Z,16.06
2018-05-09T00:16:21.697Z,16.08
2018-05-09T00:17:21.636Z,16.11
2018-05-09T00:19:13.610Z,16.04
2018-05-09T00:20:13.536Z,15.99
2018-05-09T00:22:05.294Z,16.03
2018-05-09T00:23:05.237Z,16.06
2018-05-09T00:24:57.001Z,15.98
2018-05-09T00:25:56.938Z,15.88
2018-05-09T00:27:48.686Z,15.95
2018-05-09T00:28:48.622Z,15.89
2018-05-09T00:30:40.396Z,16.07
2018-05-09T00:31:40.316Z,16.04
2018-05-09T00:33:32.076Z,16.01
2018-05-09T00:34:32.013Z,15.88
2018-05-09T00:36:23.786Z,15.93
2018-05-09T00:37:23.713Z,15.93
2018-05-09T00:39:15.513Z,15.86
2018-05-09T00:40:15.442Z,15.93
2018-05-09T00:42:07.228Z,15.92
2018-05-09T00:43:07.167Z,15.91
2018-05-09T00:44:58.964Z,15.89
2018-05-09T00:45:58.889Z,15.74
2018-05-09T00:47:50.674Z,15.81
2018-05-09T00:48:50.611Z,15.78
2018-05-09T00:50:42.412Z,15.74
2018-05-09T00:51:42.338Z,15.62
2018-05-09T00:53:34.124Z,15.68
2018-05-09T00:54:34.065Z,15.77
2018-05-09T00:56:25.845Z,15.68
2018-05-09T00:57:25.772Z,15.67
2018-05-09T00:59:17.556Z,15.68
2018-05-09T01:00:17.473Z,15.67
2018-05-09T01:02:09.223Z,15.66
2018-05-09T01:03:09.167Z,15.70
2018-05-09T01:05:00.938Z,15.67
2018-05-09T01:06:00.865Z,15.70
2018-05-09T01:07:52.617Z,15.68
2018-05-09T01:08:52.551Z,15.66
2018-05-09T01:10:44.347Z,15.58
2018-05-09T01:11:44.265Z,15.55
2018-05-09T01:13:36.041Z,15.56
2018-05-09T01:14:35.971Z,15.60
2018-05-09T01:16:27.729Z,15.52
2018-05-09T01:17:27.662Z,15.46
2018-05-09T01:19:19.423Z,15.66
2018-05-09T01:20:19.363Z,15.62
2018-05-09T01:22:11.194Z,15.56
2018-05-09T01:23:11.066Z,15.60
2018-05-09T01:25:02.866Z,15.58
2018-05-09T01:26:02.798Z,15.56
2018-05-09T01:27:54.552Z,15.62
2018-05-09T01:28:54.493Z,15.49
2018-05-09T01:30:46.257Z,15.58
2018-05-09T01:31:46.177Z,15.56
2018-05-09T01:33:37.943Z,15.41
2018-05-09T01:34:37.890Z,15.56
2018-05-09T01:36:29.658Z,15.56
2018-05-09T01:37:29.586Z,15.51
2018-05-09T01:39:21.390Z,15.56
2018-05-09T01:40:21.308Z,15.55
2018-05-09T01:42:13.105Z,15.40
2018-05-09T01:43:13.058Z,15.49
2018-05-09T01:45:04.821Z,15.43
2018-05-09T01:46:04.762Z,15.43
2018-05-09T01:47:56.557Z,15.43
2018-05-09T01:48:56.488Z,15.38
2018-05-09T01:50:48.286Z,15.44
2018-05-09T01:51:48.213Z,15.48
2018-05-09T01:53:40.046Z,15.51
2018-05-09T01:54:39.972Z,15.49
2018-05-09T01:56:31.778Z,15.49
2018-05-09T01:57:31.703Z,15.41
2018-05-09T01:59:23.459Z,15.52
2018-05-09T02:00:23.398Z,15.49
2018-05-09T02:02:15.182Z,15.51
2018-05-09T02:03:15.111Z,15.38
2018-05-09T02:05:06.865Z,15.43
2018-05-09T02:06:06.802Z,15.44
2018-05-09T02:07:58.559Z,15.30
2018-05-09T02:08:58.486Z,15.37
2018-05-09T02:10:50.260Z,15.33
2018-05-09T02:11:50.182Z,15.33
2018-05-09T02:13:41.961Z,15.28
2018-05-09T02:14:41.880Z,15.19
2018-05-09T02:16:33.686Z,15.20
2018-05-09T02:17:33.697Z,15.22
2018-05-09T02:19:25.362Z,15.25
2018-05-09T02:20:25.304Z,15.16
2018-05-09T02:22:17.060Z,15.19
2018-05-09T02:23:17.004Z,15.16
2018-05-09T02:25:08.766Z,15.12
2018-05-09T02:26:08.705Z,15.00
2018-05-09T02:28:00.499Z,15.04
2018-05-09T02:29:00.430Z,15.03
2018-05-09T02:30:52.240Z,14.97
2018-05-09T02:31:52.160Z,14.87
2018-05-09T02:33:43.945Z,14.97
2018-05-09T02:34:43.853Z,14.90
2018-05-09T02:36:35.624Z,14.82
2018-05-09T02:37:35.550Z,14.91
2018-05-09T02:39:27.298Z,14.86
2018-05-09T02:40:27.236Z,14.82
2018-05-09T02:42:19.027Z,14.79
2018-05-09T02:43:18.957Z,14.80
2018-05-09T02:45:10.702Z,14.72
2018-05-09T02:46:10.655Z,14.74
2018-05-09T02:48:02.429Z,14.78
2018-05-09T02:49:02.334Z,14.72
2018-05-09T02:50:54.104Z,14.72
2018-05-09T02:51:54.040Z,14.61
2018-05-09T02:53:45.814Z,14.57
2018-05-09T02:54:45.740Z,14.61
2018-05-09T02:56:37.504Z,14.59
2018-05-09T02:57:37.437Z,14.63
2018-05-09T02:59:29.183Z,14.56
2018-05-09T03:00:29.126Z,14.52
2018-05-09T03:02:20.953Z,14.74
2018-05-09T03:03:20.880Z,14.64
2018-05-09T03:05:12.642Z,14.74
2018-05-09T03:06:12.587Z,14.74
2018-05-09T03:08:04.350Z,14.64
2018-05-09T03:09:04.276Z,14.63
2018-05-09T03:10:56.032Z,14.54
2018-05-09T03:11:55.960Z,14.56
2018-05-09T03:13:47.718Z,14.61
2018-05-09T03:14:47.645Z,14.59
2018-05-09T03:16:39.402Z,14.66
2018-05-09T03:17:39.339Z,14.54
2018-05-09T03:19:31.098Z,14.56
2018-05-09T03:20:31.036Z,14.59
2018-05-09T03:22:22.824Z,14.54
2018-05-09T03:23:22.752Z,14.60
2018-05-09T03:25:14.506Z,14.53
2018-05-09T03:26:14.444Z,14.59
2018-05-09T03:28:06.208Z,14.54
2018-05-09T03:29:06.138Z,14.53
2018-05-09T03:30:57.890Z,14.54
2018-05-09T03:31:57.828Z,14.49
2018-05-09T03:33:49.598Z,14.59
2018-05-09T03:34:49.535Z,14.61
2018-05-09T03:36:41.281Z,14.56
2018-05-09T03:37:41.216Z,14.57
2018-05-09T03:39:32.989Z,14.59
2018-05-09T03:40:32.919Z,14.54
2018-05-09T03:42:24.689Z,14.60
2018-05-09T03:43:24.613Z,14.54
2018-05-09T03:45:16.361Z,14.54
2018-05-09T03:46:16.302Z,14.44
2018-05-09T03:48:08.060Z,14.53
2018-05-09T03:49:07.993Z,14.54
2018-05-09T03:50:59.754Z,14.54
2018-05-09T03:51:59.694Z,14.74
2018-05-09T03:53:51.453Z,14.75
2018-05-09T03:54:51.388Z,14.83
2018-05-09T03:56:43.153Z,14.83
2018-05-09T03:57:43.093Z,14.75
2018-05-09T03:59:34.865Z,14.82
2018-05-09T04:00:34.791Z,14.80
2018-05-09T04:02:26.572Z,14.98
2018-05-09T04:03:26.507Z,15.00
2018-05-09T04:05:18.319Z,15.07
2018-05-09T04:06:18.204Z,15.09
2018-05-09T04:08:09.976Z,15.12
2018-05-09T04:09:09.899Z,15.12
2018-05-09T04:11:01.653Z,15.23
2018-05-09T04:12:01.598Z,15.22
2018-05-09T04:13:53.368Z,15.22
2018-05-09T04:14:53.324Z,15.28
2018-05-09T04:16:45.062Z,15.33
2018-05-09T04:17:45.000Z,15.37
2018-05-09T04:19:36.773Z,15.35
2018-05-09T04:20:36.782Z,15.33
2018-05-09T04:22:28.469Z,15.40
2018-05-09T04:23:28.417Z,15.37
2018-05-09T04:25:20.200Z,15.31
2018-05-09T04:26:20.097Z,15.28
2018-05-09T04:28:11.948Z,15.37
2018-05-09T04:29:11.800Z,15.46
2018-05-09T04:31:03.574Z,15.46
2018-05-09T04:32:03.502Z,15.59
2018-05-09T04:33:55.473Z,15.55
2018-05-09T04:34:55.215Z,15.55
2018-05-09T04:36:47.008Z,15.51
2018-05-09T04:37:46.931Z,15.49
2018-05-09T04:39:38.805Z,15.51
2018-05-09T04:40:38.711Z,15.55
2018-05-09T04:42:30.542Z,15.73
2018-05-09T04:43:30.444Z,15.77
2018-05-09T04:45:22.543Z,15.86
2018-05-09T04:46:22.173Z,15.88
2018-05-09T04:48:13.922Z,15.93
2018-05-09T04:49:13.896Z,15.92
2018-05-09T04:51:05.643Z,16.06
2018-05-09T04:52:05.554Z,16.03
2018-05-09T04:53:57.544Z,16.01
2018-05-09T04:54:57.490Z,16.07
2018-05-09T04:56:49.240Z,16.13
2018-05-09T04:57:49.164Z,16.33
2018-05-09T04:59:40.947Z,16.29
2018-05-09T05:00:40.945Z,16.48
2018-05-09T05:02:32.675Z,16.63
2018-05-09T05:03:32.573Z,16.66
2018-05-09T05:05:24.670Z,16.95
2018-05-09T05:06:24.536Z,17.03
2018-05-09T05:08:16.208Z,17.17
2018-05-09T05:09:16.148Z,17.21
2018-05-09T05:11:07.934Z,17.76
2018-05-09T05:12:07.924Z,17.91
2018-05-09T05:13:59.611Z,18.31
2018-05-09T05:14:59.553Z,18.35
2018-05-09T05:16:51.332Z,19.05
2018-05-09T05:17:51.267Z,19.61
2018-05-09T05:19:43.223Z,20.73
2018-05-09T05:20:42.999Z,20.94
2018-05-09T05:22:34.764Z,22.11
2018-05-09T05:23:34.709Z,21.86
2018-05-09T05:25:26.499Z,22.17
2018-05-09T05:26:26.420Z,22.19
2018-05-09T05:28:18.220Z,22.81
2018-05-09T05:29:18.183Z,23.35
2018-05-09T05:31:09.949Z,23.82
2018-05-09T05:32:09.872Z,24.21
2018-05-09T05:34:01.675Z,24.27
2018-05-09T05:35:01.777Z,24.48
2018-05-09T05:36:53.387Z,24.99
2018-05-09T05:37:53.310Z,25.19
2018-05-09T05:39:45.120Z,25.31
2018-05-09T05:40:45.068Z,25.09
2018-05-09T05:42:36.879Z,24.80
2018-05-09T05:43:36.808Z,25.12
2018-05-09T05:45:28.631Z,24.83
2018-05-09T05:46:28.550Z,24.92
2018-05-09T05:48:20.304Z,24.99
2018-05-09T05:49:20.245Z,25.29
2018-05-09T05:51:12.053Z,25.98
2018-05-09T05:52:11.966Z,26.06
2018-05-09T05:54:03.766Z,26.01
2018-05-09T05:55:03.750Z,26.21
2018-05-09T05:56:55.463Z,26.08
2018-05-09T05:57:55.387Z,26.21
2018-05-09T05:59:47.181Z,25.71
2018-05-09T06:00:47.136Z,25.67
2018-05-09T06:02:38.944Z,24.71
2018-05-09T06:03:38.846Z,25.08
2018-05-09T06:05:30.709Z,25.24
2018-05-09T06:06:30.746Z,25.04
2018-05-09T06:08:22.441Z,24.46
2018-05-09T06:09:22.344Z,24.99
2018-05-09T06:11:14.158Z,24.34
2018-05-09T06:12:14.089Z,24.64
2018-05-09T06:14:05.876Z,25.53
2018-05-09T06:15:05.801Z,25.69
2018-05-09T06:16:57.631Z,26.28
2018-05-09T06:17:57.515Z,26.73
2018-05-09T06:19:49.348Z,26.94
2018-05-09T06:20:49.271Z,27.12
2018-05-09T06:22:41.151Z,26.13
2018-05-09T06:23:41.079Z,26.21
2018-05-09T06:25:32.910Z,27.05
2018-05-09T06:26:32.837Z,27.40
2018-05-09T06:28:24.686Z,26.71
2018-05-09T06:29:24.645Z,27.16
2018-05-09T06:31:16.483Z,28.09
2018-05-09T06:32:16.415Z,28.32
2018-05-09T06:34:08.181Z,28.89
2018-05-09T06:35:08.118Z,29.03
2018-05-09T06:37:00.015Z,26.91
2018-05-09T06:37:59.915Z,27.21
2018-05-09T06:39:51.774Z,27.62
2018-05-09T06:40:51.779Z,28.06
2018-05-09T06:42:43.661Z,28.50
2018-05-09T06:43:43.566Z,28.62
2018-05-09T06:45:35.267Z,28.61
2018-05-09T06:46:35.244Z,28.52
2018-05-09T06:48:27.030Z,28.32
2018-05-09T06:49:26.954Z,28.76
2018-05-09T06:51:18.999Z,28.94
2018-05-09T06:52:18.725Z,29.25
2018-05-09T06:54:10.569Z,29.44
2018-05-09T06:55:10.457Z,29.92
2018-05-09T06:57:02.355Z,29.85
2018-05-09T06:58:02.312Z,29.02
2018-05-09T06:59:54.149Z,28.25
2018-05-09T07:00:54.055Z,28.13
2018-05-09T07:02:45.941Z,28.76
2018-05-09T07:03:45.886Z,29.17
2018-05-09T07:05:37.673Z,29.51
2018-05-09T07:06:37.816Z,30.13
2018-05-09T07:08:29.428Z,29.62
2018-05-09T07:09:29.346Z,29.91
2018-05-09T07:11:21.222Z,30.19
2018-05-09T07:12:21.139Z,30.16
2018-05-09T07:14:13.059Z,29.76
2018-05-09T07:15:12.993Z,29.99
2018-05-09T07:17:04.861Z,29.67
2018-05-09T07:18:04.815Z,29.69
2018-05-09T07:19:56.677Z,29.64
2018-05-09T07:20:56.707Z,29.94
2018-05-09T07:22:48.377Z,29.70
2018-05-09T07:23:48.334Z,30.01
2018-05-09T07:25:40.144Z,30.68
2018-05-09T07:26:40.080Z,30.73
2018-05-09T07:28:31.861Z,31.00
2018-05-09T07:29:31.873Z,30.96
2018-05-09T07:31:23.675Z,31.74
2018-05-09T07:32:23.619Z,31.95
2018-05-09T07:34:15.532Z,32.27
2018-05-09T07:35:15.375Z,30.83
2018-05-09T07:37:07.211Z,30.94
2018-05-09T07:38:07.124Z,31.15
2018-05-09T07:39:58.961Z,31.91
2018-05-09T07:40:59.013Z,32.22
2018-05-09T07:42:50.706Z,32.07
2018-05-09T07:43:50.633Z,31.19
2018-05-09T07:45:42.625Z,30.03
2018-05-09T07:46:42.562Z,30.13
2018-05-09T07:48:34.256Z,30.36
2018-05-09T07:49:34.198Z,29.91
2018-05-09T07:51:26.036Z,30.70
2018-05-09T07:52:25.977Z,30.61
2018-05-09T07:54:17.965Z,30.51
2018-05-09T07:55:17.846Z,30.37
2018-05-09T07:57:09.638Z,31.04
2018-05-09T07:58:09.706Z,30.94
2018-05-09T08:00:01.405Z,32.10
2018-05-09T08:01:01.317Z,32.49
2018-05-09T08:02:53.853Z,32.59
2018-05-09T08:03:53.154Z,32.56
2018-05-09T08:05:44.867Z,32.06
2018-05-09T08:06:44.835Z,32.12
2018-05-09T08:08:36.625Z,32.24
2018-05-09T08:09:36.561Z,30.60
2018-05-09T08:11:28.396Z,30.79
2018-05-09T08:12:28.295Z,29.74
2018-05-09T08:14:20.108Z,29.70
2018-05-09T08:15:20.047Z,30.36
2018-05-09T08:17:11.822Z,30.59
2018-05-09T08:18:11.835Z,30.94
2018-05-09T08:20:03.688Z,30.83
2018-05-09T08:21:03.519Z,31.10
2018-05-09T08:22:55.328Z,31.12
2018-05-09T08:23:55.356Z,30.82
2018-05-09T08:25:47.098Z,31.56
2018-05-09T08:26:47.035Z,31.90
2018-05-09T08:28:38.906Z,32.49
2018-05-09T08:29:38.850Z,32.84
2018-05-09T08:31:30.673Z,32.27
2018-05-09T08:32:30.555Z,32.24
2018-05-09T08:34:22.332Z,32.27
2018-05-09T08:35:22.272Z,32.14
2018-05-09T08:37:14.106Z,31.67
2018-05-09T08:38:14.118Z,31.45
2018-05-09T08:40:05.838Z,31.15
2018-05-09T08:41:05.787Z,31.01
2018-05-09T08:42:57.600Z,30.90
2018-05-09T08:43:57.692Z,31.19
2018-05-09T08:45:49.389Z,31.69
2018-05-09T08:46:49.290Z,31.50
2018-05-09T08:48:41.141Z,31.56
2018-05-09T08:49:41.040Z,31.91
2018-05-09T08:51:32.838Z,31.94
2018-05-09T08:52:32.838Z,32.14
2018-05-09T08:54:24.691Z,32.68
2018-05-09T08:55:24.576Z,32.95
2018-05-09T08:57:16.371Z,33.29
2018-05-09T08:58:16.300Z,33.00
2018-05-09T09:00:08.239Z,33.28
2018-05-09T09:01:08.106Z,33.56
2018-05-09T09:02:59.950Z,33.12
2018-05-09T09:03:59.897Z,31.28
2018-05-09T09:05:51.764Z,32.03
2018-05-09T09:06:51.698Z,32.28
2018-05-09T09:08:43.518Z,31.84
2018-05-09T09:09:43.466Z,32.02
2018-05-09T09:11:35.282Z,32.12
2018-05-09T09:12:35.222Z,31.76
2018-05-09T09:14:27.006Z,30.73
2018-05-09T09:15:27.028Z,30.59
2018-05-09T09:17:18.763Z,30.57
2018-05-09T09:18:18.857Z,30.53
2018-05-09T09:20:10.509Z,31.46
2018-05-09T09:21:10.459Z,31.98
2018-05-09T09:23:02.332Z,32.46
2018-05-09T09:24:02.286Z,32.83
2018-05-09T09:25:54.084Z,32.03
2018-05-09T09:26:54.023Z,32.16
2018-05-09T09:28:45.860Z,31.45
2018-05-09T09:29:45.798Z,30.72
2018-05-09T09:31:37.700Z,30.68
2018-05-09T09:32:37.541Z,30.54
2018-05-09T09:34:29.375Z,30.93
2018-05-09T09:35:29.323Z,31.05
2018-05-09T09:37:21.136Z,31.35
2018-05-09T09:38:21.092Z,31.49
2018-05-09T09:40:12.907Z,30.70
2018-05-09T09:41:12.835Z,30.16
2018-05-09T09:43:04.610Z,29.74
2018-05-09T09:44:04.647Z,29.99
2018-05-09T09:45:56.497Z,30.64
2018-05-09T09:46:56.364Z,30.48
2018-05-09T09:48:48.296Z,30.60
2018-05-09T09:49:48.296Z,30.96
2018-05-09T09:51:40.046Z,31.45
2018-05-09T09:52:39.897Z,31.23
2018-05-09T09:54:31.688Z,31.54
2018-05-09T09:55:31.624Z,30.90
2018-05-09T09:57:23.451Z,31.28
2018-05-09T09:58:23.387Z,31.32
2018-05-09T10:00:15.322Z,31.34
2018-05-09T10:01:15.259Z,31.01
2018-05-09T10:03:07.067Z,30.78
2018-05-09T10:04:07.026Z,30.61
2018-05-09T10:05:58.822Z,29.99
2018-05-09T10:06:58.842Z,29.88
2018-05-09T10:08:50.680Z,29.41
2018-05-09T10:09:50.626Z,29.15
2018-05-09T10:11:42.435Z,29.29
2018-05-09T10:12:42.411Z,29.76
2018-05-09T10:14:34.420Z,30.01
2018-05-09T10:15:34.268Z,30.06
2018-05-09T10:17:26.102Z,30.78
2018-05-09T10:18:26.192Z,30.66
2018-05-09T10:20:17.870Z,30.83
2018-05-09T10:21:17.836Z,31.04
2018-05-09T10:23:09.619Z,31.47
2018-05-09T10:24:09.502Z,31.54
2018-05-09T10:26:01.375Z,31.30
2018-05-09T10:27:01.285Z,30.98
2018-05-09T10:28:53.048Z,30.64
2018-05-09T10:29:53.068Z,30.29
2018-05-09T10:31:44.833Z,29.66
2018-05-09T10:32:44.778Z,29.64
2018-05-09T10:34:36.588Z,29.78
2018-05-09T10:35:36.712Z,29.39
2018-05-09T10:37:28.390Z,30.11
2018-05-09T10:38:28.289Z,30.72
2018-05-09T10:40:20.101Z,30.38
2018-05-09T10:41:20.014Z,30.44
2018-05-09T10:43:11.835Z,30.08
2018-05-09T10:44:11.775Z,29.81
2018-05-09T10:46:03.667Z,29.76
2018-05-09T10:47:03.546Z,30.01
2018-05-09T10:48:55.444Z,30.03
2018-05-09T10:49:55.384Z,30.22
2018-05-09T10:51:47.191Z,30.07
2018-05-09T10:52:47.135Z,29.91
2018-05-09T10:54:38.943Z,29.42
2018-05-09T10:55:38.909Z,29.42
2018-05-09T10:57:30.908Z,29.55
2018-05-09T10:58:30.724Z,29.36
2018-05-09T11:00:22.518Z,29.25
2018-05-09T11:01:22.454Z,29.15
2018-05-09T11:03:14.276Z,29.41
2018-05-09T11:04:14.230Z,29.30
2018-05-09T11:06:06.030Z,29.60
2018-05-09T11:07:06.123Z,29.66
2018-05-09T11:08:57.906Z,29.48
2018-05-09T11:09:57.817Z,29.23
2018-05-09T11:11:49.636Z,29.11
2018-05-09T11:12:49.554Z,29.07
2018-05-09T11:14:41.356Z,29.00
2018-05-09T11:15:41.347Z,28.36
2018-05-09T11:17:33.195Z,27.68
2018-05-09T11:18:33.033Z,27.61
2018-05-09T11:20:24.839Z,27.78
2018-05-09T11:21:24.786Z,28.01
2018-05-09T11:23:16.834Z,28.18
2018-05-09T11:24:16.570Z,28.11
2018-05-09T11:26:08.387Z,28.01
2018-05-09T11:27:08.360Z,27.98
2018-05-09T11:29:00.306Z,27.71
2018-05-09T11:30:00.160Z,27.77
2018-05-09T11:31:52.005Z,27.72
2018-05-09T11:32:51.981Z,27.83
2018-05-09T11:34:43.765Z,28.20
2018-05-09T11:35:43.681Z,28.38
2018-05-09T11:37:35.485Z,28.73
2018-05-09T11:38:35.453Z,28.72
2018-05-09T11:40:27.257Z,28.32
2018-05-09T11:41:27.218Z,27.95
2018-05-09T11:43:18.958Z,27.78
2018-05-09T11:44:18.952Z,27.95
2018-05-09T11:46:10.849Z,28.17
2018-05-09T11:47:10.678Z,28.09
2018-05-09T11:49:02.510Z,27.77
2018-05-09T11:50:02.408Z,27.66
2018-05-09T11:51:54.281Z,27.74
2018-05-09T11:52:54.164Z,27.72
2018-05-09T11:54:45.945Z,27.68
2018-05-09T11:55:45.853Z,27.66
2018-05-09T11:57:37.705Z,27.65
2018-05-09T11:58:37.714Z,27.74
2018-05-09T12:00:29.535Z,27.74
2018-05-09T12:01:29.347Z,27.87
2018-05-09T12:03:21.194Z,28.02
2018-05-09T12:04:21.117Z,28.01
2018-05-09T12:06:12.936Z,27.90
2018-05-09T12:07:12.907Z,28.08
2018-05-09T12:09:04.800Z,28.15
2018-05-09T12:10:04.774Z,28.06
2018-05-09T12:11:56.548Z,27.81
2018-05-09T12:12:56.490Z,27.90
2018-05-09T12:14:48.283Z,28.15
2018-05-09T12:15:48.225Z,28.18
2018-05-09T12:17:40.079Z,27.90
2018-05-09T12:18:40.015Z,27.87
2018-05-09T12:20:32.093Z,27.74
2018-05-09T12:21:31.872Z,27.72
2018-05-09T12:23:23.828Z,27.55
2018-05-09T12:24:23.657Z,27.53
2018-05-09T12:26:15.565Z,27.63
2018-05-09T12:27:15.646Z,27.63
2018-05-09T12:29:07.312Z,27.62
2018-05-09T12:30:07.238Z,27.55
2018-05-09T12:31:59.049Z,27.52
2018-05-09T12:32:58.964Z,27.43
2018-05-09T12:34:50.782Z,27.62
2018-05-09T12:35:50.708Z,27.66
2018-05-09T12:37:42.499Z,27.72
2018-05-09T12:38:42.437Z,27.77
2018-05-09T12:40:34.349Z,27.71
2018-05-09T12:41:34.223Z,27.69
2018-05-09T12:43:26.029Z,27.77
2018-05-09T12:44:25.968Z,27.65
2018-05-09T12:46:17.887Z,27.45
2018-05-09T12:47:17.738Z,27.52
2018-05-09T12:49:09.623Z,27.61
2018-05-09T12:50:09.460Z,27.61
2018-05-09T12:52:01.286Z,27.78
2018-05-09T12:53:01.168Z,27.58
2018-05-09T12:54:53.003Z,27.55
2018-05-09T12:55:52.987Z,27.58
2018-05-09T12:57:44.964Z,27.76
2018-05-09T12:58:44.658Z,27.88
2018-05-09T13:00:36.433Z,27.96
2018-05-09T13:01:36.369Z,27.80
2018-05-09T13:03:28.216Z,27.66
2018-05-09T13:04:28.158Z,27.58
2018-05-09T13:06:19.917Z,27.38
2018-05-09T13:07:19.847Z,27.39
2018-05-09T13:09:11.639Z,27.21
2018-05-09T13:10:11.576Z,27.21
2018-05-09T13:12:03.447Z,27.21
2018-05-09T13:13:03.352Z,27.15
2018-05-09T13:14:55.177Z,27.12
2018-05-09T13:15:55.064Z,27.16
2018-05-09T13:17:46.899Z,27.23
2018-05-09T13:18:46.868Z,27.33
2018-05-09T13:20:38.616Z,27.43
2018-05-09T13:21:38.776Z,27.59
2018-05-09T13:23:30.443Z,27.65
2018-05-09T13:24:30.301Z,27.81
2018-05-09T13:26:22.176Z,27.98
2018-05-09T13:27:22.063Z,27.76
2018-05-09T13:29:13.940Z,27.76
2018-05-09T13:30:13.955Z,27.81
2018-05-09T13:32:05.665Z,28.01
2018-05-09T13:33:05.594Z,28.01
2018-05-09T13:34:57.409Z,28.09
2018-05-09T13:35:57.376Z,28.08
2018-05-09T13:37:49.131Z,28.30
2018-05-09T13:38:49.080Z,28.30
2018-05-09T13:40:40.846Z,28.13
2018-05-09T13:41:40.828Z,28.05
2018-05-09T13:43:32.642Z,27.71
2018-05-09T13:44:32.588Z,27.72
2018-05-09T13:46:24.599Z,27.68
2018-05-09T13:47:24.450Z,27.58
2018-05-09T13:49:16.424Z,27.65
2018-05-09T13:50:16.186Z,27.63
2018-05-09T13:52:07.995Z,27.72
2018-05-09T13:53:08.097Z,27.77
2018-05-09T13:54:59.802Z,27.34
2018-05-09T13:55:59.739Z,27.42
2018-05-09T13:57:51.443Z,27.15
2018-05-09T13:58:51.371Z,27.05
2018-05-09T14:00:43.349Z,27.08
2018-05-09T14:01:43.188Z,27.08
2018-05-09T14:03:35.137Z,27.24
2018-05-09T14:04:34.935Z,27.34
2018-05-09T14:06:26.942Z,27.38
2018-05-09T14:07:26.698Z,27.58
2018-05-09T14:09:18.614Z,27.69
2018-05-09T14:10:18.503Z,27.77
2018-05-09T14:12:10.416Z,27.68
2018-05-09T14:13:10.218Z,27.63
2018-05-09T14:15:02.110Z,27.63
2018-05-09T14:16:02.125Z,27.55
2018-05-09T14:17:53.859Z,27.66
2018-05-09T14:18:53.884Z,27.68
2018-05-09T14:20:45.718Z,27.72
2018-05-09T14:21:45.627Z,27.68
2018-05-09T14:23:37.554Z,27.63
2018-05-09T14:24:37.492Z,27.58
2018-05-09T14:26:29.493Z,27.48
2018-05-09T14:27:29.207Z,27.53
2018-05-09T14:29:20.990Z,27.50
2018-05-09T14:30:20.941Z,27.53
2018-05-09T14:32:12.871Z,27.61
2018-05-09T14:33:12.697Z,27.71
2018-05-09T14:35:04.488Z,27.68
2018-05-09T14:36:04.408Z,27.63
2018-05-09T14:37:56.234Z,27.50
2018-05-09T14:38:56.199Z,27.50
2018-05-09T14:40:48.308Z,27.30
2018-05-09T14:41:48.134Z,27.31
2018-05-09T14:43:39.912Z,27.38
2018-05-09T14:44:39.858Z,27.31
2018-05-09T14:46:31.697Z,27.45
2018-05-09T14:47:31.567Z,27.49
2018-05-09T14:49:23.349Z,27.39
2018-05-09T14:50:23.293Z,27.28
2018-05-09T14:52:15.094Z,27.27
2018-05-09T14:53:15.108Z,27.25
2018-05-09T14:55:06.809Z,27.38
2018-05-09T14:56:06.770Z,27.43
2018-05-09T14:57:58.632Z,27.49
2018-05-09T14:58:58.583Z,27.49
2018-05-09T15:00:50.530Z,27.53
2018-05-09T15:01:50.300Z,27.38
2018-05-09T15:03:42.280Z,27.45
2018-05-09T15:04:42.106Z,27.35
2018-05-09T15:06:33.859Z,27.38
2018-05-09T15:07:33.859Z,27.42
2018-05-09T15:09:25.695Z,27.42
2018-05-09T15:10:25.580Z,27.35
2018-05-09T15:12:17.402Z,27.46
2018-05-09T15:13:17.405Z,27.34
2018-05-09T15:15:09.168Z,27.24
2018-05-09T15:16:09.098Z,27.20
2018-05-09T15:18:00.897Z,27.23
2018-05-09T15:19:00.849Z,27.33
2018-05-09T15:20:52.709Z,27.24
2018-05-09T15:21:52.773Z,27.20
2018-05-09T15:23:44.387Z,27.28
2018-05-09T15:24:44.332Z,27.35
2018-05-09T15:26:36.224Z,27.24
2018-05-09T15:27:36.048Z,27.24
2018-05-09T15:29:27.881Z,27.16
2018-05-09T15:30:27.784Z,27.24
2018-05-09T15:32:19.629Z,27.35
2018-05-09T15:33:19.541Z,27.40
2018-05-09T15:35:11.391Z,27.33
2018-05-09T15:36:11.357Z,27.24
2018-05-09T15:38:03.443Z,27.12
2018-05-09T15:39:03.234Z,27.30
2018-05-09T15:40:54.894Z,27.20
2018-05-09T15:41:54.839Z,27.23
2018-05-09T15:43:46.866Z,27.34
2018-05-09T15:44:46.699Z,27.33
2018-05-09T15:46:38.654Z,27.35
2018-05-09T15:47:38.472Z,27.39
2018-05-09T15:49:30.282Z,27.55
2018-05-09T15:50:30.187Z,27.65
2018-05-09T15:52:22.157Z,27.80
2018-05-09T15:53:21.957Z,27.66
2018-05-09T15:55:13.813Z,27.62
2018-05-09T15:56:13.731Z,27.49
2018-05-09T15:58:05.516Z,27.48
2018-05-09T15:59:05.412Z,27.30
2018-05-09T16:00:57.285Z,27.35
2018-05-09T16:01:57.240Z,27.42
2018-05-09T16:03:48.982Z,27.65
2018-05-09T16:04:48.904Z,27.63
2018-05-09T16:06:40.776Z,27.46
2018-05-09T16:07:40.693Z,27.43
2018-05-09T16:09:32.527Z,27.48
2018-05-09T16:10:32.569Z,27.38
2018-05-09T16:12:24.320Z,27.35
2018-05-09T16:13:24.226Z,27.27
2018-05-09T16:15:16.009Z,27.24
2018-05-09T16:16:15.936Z,27.15
2018-05-09T16:18:07.854Z,27.16
2018-05-09T16:19:07.769Z,27.03
2018-05-09T16:20:59.650Z,26.98
2018-05-09T16:21:59.579Z,26.91
2018-05-09T16:23:51.376Z,26.97
2018-05-09T16:24:51.299Z,26.88
2018-05-09T16:26:43.078Z,26.79
2018-05-09T16:27:43.019Z,26.79
2018-05-09T16:29:34.857Z,26.76
2018-05-09T16:30:34.797Z,26.90
2018-05-09T16:32:26.649Z,26.76
2018-05-09T16:33:26.509Z,26.76
2018-05-09T16:35:18.309Z,26.76
2018-05-09T16:36:18.251Z,26.75
2018-05-09T16:38:10.127Z,26.76
2018-05-09T16:39:09.994Z,26.79
2018-05-09T16:41:01.994Z,26.75
2018-05-09T16:42:01.981Z,26.72
2018-05-09T16:43:53.776Z,26.75
2018-05-09T16:44:53.715Z,26.78
2018-05-09T16:46:45.499Z,26.76
2018-05-09T16:47:45.400Z,26.84
2018-05-09T16:49:37.201Z,26.79
2018-05-09T16:50:37.129Z,26.72
2018-05-09T16:52:29.000Z,26.73
2018-05-09T16:53:28.857Z,26.83
2018-05-09T16:55:20.670Z,26.73
2018-05-09T16:56:20.619Z,26.73
2018-05-09T16:58:12.438Z,26.71
2018-05-09T16:59:12.343Z,26.68
2018-05-09T17:01:04.122Z,26.66
2018-05-09T17:02:04.064Z,26.69
2018-05-09T17:03:55.934Z,26.53
2018-05-09T17:04:55.863Z,26.64
2018-05-09T17:06:47.645Z,26.59
2018-05-09T17:07:47.617Z,26.53
2018-05-09T17:09:39.432Z,26.61
2018-05-09T17:10:39.409Z,26.61
2018-05-09T17:12:31.271Z,26.51
2018-05-09T17:13:31.200Z,26.57
2018-05-09T17:15:23.028Z,26.59
2018-05-09T17:16:22.911Z,26.53
2018-05-09T17:18:14.727Z,26.56
2018-05-09T17:19:14.723Z,26.41
2018-05-09T17:21:06.431Z,26.44
2018-05-09T17:22:06.373Z,26.34
2018-05-09T17:23:58.195Z,26.28
2018-05-09T17:24:58.171Z,26.28
2018-05-09T17:26:49.910Z,26.27
2018-05-09T17:27:49.853Z,26.24
2018-05-09T17:29:41.804Z,26.21
2018-05-09T17:30:41.817Z,26.21
2018-05-09T17:32:33.489Z,26.19
2018-05-09T17:33:33.426Z,26.19
2018-05-09T17:35:25.223Z,26.21
2018-05-09T17:36:25.153Z,26.29
2018-05-09T17:38:16.960Z,26.31
2018-05-09T17:39:16.912Z,26.35
2018-05-09T17:41:09.225Z,26.42
2018-05-09T17:42:09.146Z,26.42
2018-05-09T17:44:01.156Z,26.28
2018-05-09T17:45:00.878Z,26.24
2018-05-09T17:46:52.698Z,26.31
2018-05-09T17:47:52.663Z,26.12
2018-05-09T17:49:44.510Z,26.16
2018-05-09T17:50:44.482Z,26.09
2018-05-09T17:52:36.314Z,26.13
2018-05-09T17:53:36.151Z,26.17
2018-05-09T17:55:27.961Z,26.11
2018-05-09T17:56:27.914Z,26.08
2018-05-09T17:58:19.713Z,26.11
2018-05-09T17:59:19.655Z,26.11
2018-05-09T18:01:11.546Z,26.12
2018-05-09T18:02:11.465Z,25.96
2018-05-09T18:04:03.371Z,26.01
2018-05-09T18:05:03.250Z,25.85
2018-05-09T18:06:55.085Z,25.81
2018-05-09T18:07:55.093Z,25.71
2018-05-09T18:09:46.852Z,25.46
2018-05-09T18:10:46.744Z,25.44
2018-05-09T18:12:38.602Z,25.41
2018-05-09T18:13:38.488Z,25.24
2018-05-09T18:15:30.275Z,25.24
2018-05-09T18:16:30.182Z,25.26
2018-05-09T18:18:21.973Z,25.05
2018-05-09T18:19:21.889Z,25.14
2018-05-09T18:21:13.754Z,24.98
2018-05-09T18:22:13.610Z,24.93
2018-05-09T18:24:05.393Z,24.75
2018-05-09T18:25:05.342Z,24.75